Ana Sayfa
METAR-TAF:

METAR-TAF

Havaalanları :

Curaçao, Hollanda Antilleri

Enlem: 12-12N, Boylam: 068-58W, yükseklik: 9 m

Güncel hava durumu gözlemi

Rapor saat 00:00 UTC de 55 dakika önce yapıldı.
Rüzgar doğudan 13 kt
Sıcaklık 27°C
Nem 79%
Basınç 1014 hPa
Görüş mesafesi 10 km veya daha fazla
1800 ft yükseklikte az bulutlu

METAR: TNCC 210000Z 10013KT 9999 FEW018 27/23 Q1014 NOSIG

Saat: 20:55 (00:55 UTC)

Tahmin

Rapor saat 21:45 UTC de 3 saat ve 10 dakika önce yapıldı.
Ayın 21'si saat 00 UTC'den ayın 21'si saat 24 UTC'ye kadar geçerli Tahmin
Rüzgar doğu/güneydoğudan 13 kt
Görüş mesafesi 10 km veya daha fazla
1800 ft yükseklikte az bulutlu
Dönüşüyor
ayın 21'si saat 14 UTC'den ayın 21'si saat 16 UTC'ye kadar
Rüzgar doğudan 14 kt ve 24 kt'a kadar ani rüzgarlar

TAF: TNCC 202145Z 2100/2124 11013KT 9999 FEW018 BECMG 2114/2116 10014G24KT

4.000'den fazla havaalanı için hava durumu gözlemleri ve tahminleri (METAR ve TAF raporları).

Kullanılabilir istasyonlar harita üzerinde sarı ve kırmızı noktalarla gösterilir.

İstasyonun adını görmek için fareyi noktanın üzerinde gezdirin.

Sonrasında hava gözlem ve tahminlerini görmek için tıklayın.

Haritayı değiştirmek için: yaklaştırmak için siyah artı işaretli yeşil düğmeye ve uzaklaştırmak için de eksi işaretli düğmeye hızla tıklayın; bitişik haritalar için yeşil okları kullanın.


METAR-TAF: